aviador You're here:

CYCS Decoded Metar

CHESTERFIELD INLET in NU, CANADA
Report Time2017-09-21 21:08:00
UTC Time2017-09-21 21:21:39
Flight Rules mvfr MVFR
Wind050° at 17 kt
W.Decomp.*RWY 12: 8.5 kt HW 14.7 kt LCW
W.Rank050° ranks 19
Current wind is above 050° avg. (12.2)
Visibility9999 m
Phenomena:Light Shower Rain
Clouds:Overcast 014 Hf
Expected CloudBase > 1,200 ft AGL from Temp-Dew spread
Ceiling1,400 ft
Temp04°C (ISA -11)
Dew Point01°C (81% RH)
AAT-4.0°C
QNH1017 hPa
Density Alt-1,335 ft
Elevation36 ft
Report Wrong Elevation
Raw Report
SPECI CYCS 212108Z 05017KT 15SM -SHRA OVC014 04/01 A3004 RMK SC8
SLP173=

Extra information for CYCS:More info

Metar Taf Metar & Taf Last 4 Metars F.Rules Stats Wind Profile Meteogram Temp Stats Airport Information Weather charts Add Link Nearby VenuesMetar ALERT Operation Metar Decoded Social comments